.
WxDataArchive / Data Records for 2008-11-16
2008-11-15 November 2008 2008-11-17

Data Records for Sunday, 16 November 2008

Time	Temp	Chill	HIndex	Humid	Dewpt	 Wind 	HiWind	WindDir	Rain 	Barom 
-----	----	-----	------	-----	-----	------	------	-------	-----	----- 
00:00	34.6	34.6	34.6	91	32.2	2	6	270	0.01	29.843 
00:05	34.4	34.4	34.4	91	32.0	2	6	270	0.00	29.843 
00:10	34.4	34.4	34.4	91	32.0	2	4	248	0.00	29.842 
00:15	34.4	34.4	34.4	90	31.8	3	6	270	0.00	29.844 
00:20	34.4	34.4	34.4	90	31.8	3	11	270	0.00	29.844 
00:25	34.4	34.4	34.4	89	31.5	3	11	270	0.00	29.844 
00:30	34.6	34.6	34.6	88	31.4	3	10	270	0.00	29.844 
00:35	34.6	34.6	34.6	88	31.4	2	5	270	0.00	29.844 
00:40	34.7	34.7	34.7	87	31.2	3	8	270	0.01	29.844 
00:45	34.7	34.7	34.7	86	30.9	2	9	248	0.00	29.845 
00:50	34.7	34.7	34.7	86	30.9	3	10	248	0.00	29.845 
00:55	34.9	34.9	34.9	85	30.9	3	10	270	0.00	29.845 
01:00	34.9	34.9	34.9	84	30.6	2	6	248	0.00	29.843 
01:05	34.9	34.9	34.9	84	30.6	2	3	248	0.00	29.843 
01:10	35.0	35.0	35.0	83	30.4	3	5	248	0.00	29.843 
01:15	35.0	35.0	35.0	82	30.1	3	6	270	0.00	29.843 
01:20	35.2	35.2	35.2	81	30.0	3	5	248	0.00	29.843 
01:25	35.0	35.0	35.0	81	29.8	3	7	248	0.00	29.843 
01:30	35.2	35.2	35.2	80	29.7	2	4	270	0.00	29.842 
01:35	35.0	35.0	35.0	81	29.8	2	9	248	0.00	29.842 
01:40	34.9	34.9	34.9	81	29.7	3	7	248	0.00	29.842 
01:45	34.9	34.9	34.9	81	29.7	2	5	270	0.00	29.841 
01:50	34.9	34.9	34.9	81	29.7	2	6	248	0.00	29.841 
01:55	34.9	34.9	34.9	80	29.4	2	6	248	0.00	29.841 
02:00	34.9	34.9	34.9	80	29.4	2	5	248	0.00	29.842 
02:05	34.9	34.9	34.9	80	29.4	1	3	248	0.00	29.842 
02:10	34.9	34.9	34.9	80	29.4	2	6	248	0.00	29.842 
02:15	35.0	35.0	35.0	79	29.2	2	4	248	0.01	29.842 
02:20	35.0	35.0	35.0	78	28.8	2	4	248	0.00	29.842 
02:25	35.0	35.0	35.0	78	28.8	2	6	248	0.00	29.842 
02:30	35.0	35.0	35.0	78	28.8	2	4	248	0.00	29.843 
02:35	35.0	35.0	35.0	77	28.5	3	7	270	0.00	29.845 
02:40	35.0	35.0	35.0	77	28.5	3	6	270	0.00	29.848 
02:45	35.0	35.0	35.0	77	28.5	2	5	248	0.00	29.849 
02:50	35.0	35.0	35.0	76	28.2	3	9	270	0.00	29.853 
02:55	34.9	34.9	34.9	76	28.1	3	10	270	0.00	29.850 
03:00	34.9	34.9	34.9	77	28.4	2	6	248	0.00	29.854 
03:05	34.9	34.9	34.9	76	28.1	3	6	270	0.00	29.853 
03:10	34.9	34.9	34.9	76	28.1	3	9	270	0.00	29.852 
03:15	34.9	34.9	34.9	76	28.1	2	6	270	0.00	29.853 
03:20	34.9	34.9	34.9	77	28.4	2	4	270	0.00	29.854 
03:25	34.7	34.7	34.7	77	28.2	2	5	270	0.00	29.852 
03:30	34.7	34.7	34.7	77	28.2	2	6	248	0.00	29.849 
03:35	34.7	34.7	34.7	77	28.2	1	4	248	0.00	29.844 
03:40	34.7	34.7	34.7	77	28.2	2	7	248	0.00	29.849 
03:45	34.7	34.7	34.7	77	28.2	3	5	270	0.00	29.851 
03:50	34.7	34.7	34.7	78	28.6	2	7	248	0.00	29.850 
03:55	34.7	34.7	34.7	78	28.6	2	4	270	0.00	29.851 
04:00	34.7	34.7	34.7	78	28.6	3	5	270	0.00	29.854 
04:05	34.6	34.6	34.6	78	28.5	2	7	270	0.00	29.856 
04:10	34.6	34.6	34.6	78	28.5	3	6	270	0.00	29.858 
04:15	34.6	31.1	34.6	79	28.8	4	10	270	0.00	29.859 
04:20	34.4	30.8	34.4	80	28.9	4	10	270	0.00	29.862 
04:25	34.3	30.7	34.3	80	28.8	4	9	270	0.00	29.860 
04:30	34.1	30.5	34.1	81	28.9	4	9	270	0.00	29.863 
04:35	34.1	34.1	34.1	81	28.9	3	5	248	0.00	29.866 
04:40	34.0	34.0	34.0	82	29.1	3	10	248	0.00	29.868 
04:45	34.0	34.0	34.0	82	29.1	3	9	270	0.00	29.870 
04:50	33.8	30.2	33.8	83	29.2	4	13	270	0.00	29.870 
04:55	33.8	30.2	33.8	83	29.2	4	9	270	0.00	29.870 
05:00	33.8	33.8	33.8	83	29.2	3	9	270	0.00	29.870 
05:05	33.7	33.7	33.7	84	29.4	2	6	248	0.00	29.872 
05:10	33.7	33.7	33.7	84	29.4	3	4	248	0.00	29.874 
05:15	33.7	30.0	33.7	84	29.4	4	11	270	0.00	29.874 
05:20	33.5	33.5	33.5	84	29.2	3	7	270	0.00	29.873 
05:25	33.5	29.8	33.5	84	29.2	4	11	248	0.00	29.875 
05:30	33.5	33.5	33.5	84	29.2	3	8	248	0.00	29.873 
05:35	33.5	33.5	33.5	85	29.5	3	10	248	0.00	29.874 
05:40	33.4	33.4	33.4	85	29.4	3	7	248	0.00	29.875 
05:45	33.4	33.4	33.4	85	29.4	2	6	248	0.00	29.878 
05:50	33.4	33.4	33.4	85	29.4	3	6	248	0.00	29.881 
05:55	33.5	33.5	33.5	84	29.2	3	6	270	0.00	29.883 
06:00	33.5	33.5	33.5	84	29.2	2	6	270	0.00	29.884 
06:05	33.5	33.5	33.5	84	29.2	2	6	248	0.00	29.883 
06:10	33.5	33.5	33.5	84	29.2	3	7	248	0.00	29.886 
06:15	33.5	33.5	33.5	83	28.9	3	6	270	0.00	29.885 
06:20	33.5	33.5	33.5	83	28.9	2	7	248	0.00	29.887 
06:25	33.5	33.5	33.5	83	28.9	3	9	270	0.00	29.887 
06:30	33.5	33.5	33.5	83	28.9	3	6	248	0.00	29.884 
06:35	33.5	33.5	33.5	83	28.9	1	3	248	0.00	29.880 
06:40	33.5	33.5	33.5	83	28.9	2	4	248	0.00	29.883 
06:45	33.5	33.5	33.5	83	28.9	2	6	248	0.00	29.884 
06:50	33.5	33.5	33.5	82	28.6	1	5	248	0.00	29.885 
06:55	33.5	33.5	33.5	82	28.6	2	6	248	0.00	29.886 
07:00	33.5	33.5	33.5	81	28.3	2	5	248	0.00	29.886 
07:05	33.5	33.5	33.5	81	28.3	2	5	248	0.00	29.887 
07:10	33.5	33.5	33.5	81	28.3	2	6	248	0.00	29.888 
07:15	33.5	33.5	33.5	80	28.0	3	7	270	0.00	29.888 
07:20	33.7	33.7	33.7	79	27.9	3	7	270	0.00	29.887 
07:25	33.7	33.7	33.7	79	27.9	3	6	248	0.00	29.889 
07:30	33.5	33.5	33.5	79	27.7	2	6	248	0.00	29.889 
07:35	33.5	33.5	33.5	79	27.7	3	7	270	0.00	29.889 
07:40	33.5	33.5	33.5	79	27.7	3	9	248	0.00	29.889 
07:45	33.5	33.5	33.5	79	27.7	3	8	248	0.00	29.890 
07:50	33.5	33.5	33.5	79	27.7	3	9	248	0.00	29.891 
07:55	33.4	33.4	33.4	80	27.9	3	9	248	0.00	29.889 
08:00	33.4	29.7	33.4	80	27.9	4	7	270	0.00	29.893 
08:05	33.4	33.4	33.4	80	27.9	2	5	248	0.00	29.895 
08:10	33.2	33.2	33.2	80	27.7	3	6	248	0.00	29.900 
08:15	33.2	33.2	33.2	80	27.7	3	9	248	0.00	29.905 
08:20	33.2	29.5	33.2	80	27.7	4	9	270	0.00	29.907 
08:25	33.2	33.2	33.2	80	27.7	3	7	270	0.00	29.908 
08:30	33.2	33.2	33.2	79	27.4	3	8	270	0.00	29.908 
08:35	33.2	33.2	33.2	79	27.4	3	7	248	0.00	29.908 
08:40	33.2	33.2	33.2	78	27.1	3	11	270	0.00	29.908 
08:45	33.4	33.4	33.4	78	27.3	2	5	248	0.00	29.909 
08:50	33.5	33.5	33.5	78	27.4	2	7	248	0.00	29.909 
08:55	33.5	33.5	33.5	78	27.4	2	9	270	0.00	29.913 
09:00	33.5	33.5	33.5	78	27.4	3	9	248	0.00	29.914 
09:05	33.7	33.7	33.7	77	27.3	2	6	248	0.00	29.916 
09:10	33.7	30.0	33.7	77	27.3	4	10	270	0.00	29.913 
09:15	33.5	33.5	33.5	76	26.8	3	6	270	0.00	29.918 
09:20	33.5	29.8	33.5	76	26.8	4	9	270	0.00	29.914 
09:25	33.5	29.8	33.5	76	26.8	4	12	270	0.00	29.912 
09:30	33.7	33.7	33.7	76	27.0	3	9	270	0.00	29.911 
09:35	33.8	33.8	33.8	76	27.1	3	7	248	0.00	29.917 
09:40	33.8	33.8	33.8	75	26.7	3	5	270	0.00	29.916 
09:45	33.8	29.2	33.8	74	26.4	5	11	270	0.00	29.921 
09:50	34.0	30.4	34.0	74	26.6	4	14	270	0.00	29.919 
09:55	34.1	30.5	34.1	73	26.4	4	14	270	0.00	29.919 
10:00	34.1	28.7	34.1	73	26.4	6	13	270	0.00	29.921 
10:05	34.1	30.5	34.1	73	26.4	4	10	270	0.00	29.915 
10:10	34.1	29.5	34.1	72	26.0	5	13	270	0.00	29.915 
10:15	34.1	30.5	34.1	72	26.0	4	12	270	0.00	29.917 
10:20	34.7	34.7	34.7	72	26.6	3	9	270	0.00	29.917 
10:25	34.9	30.5	34.9	69	25.8	5	11	270	0.00	29.918 
10:30	34.9	30.5	34.9	69	25.8	5	14	270	0.00	29.920 
10:35	34.9	31.4	34.9	68	25.4	4	10	270	0.00	29.923 
10:40	34.7	30.2	34.7	67	24.9	5	13	248	0.00	29.924 
10:45	34.9	30.5	34.9	67	25.1	5	12	270	0.00	29.924 
10:50	34.9	29.7	34.9	64	24.0	6	14	270	0.00	29.926 
10:55	35.0	30.6	35.0	64	24.1	5	11	270	0.00	29.925 
11:00	35.5	32.1	35.5	66	25.3	4	10	270	0.01	29.922 
11:05	36.3	36.3	36.3	67	26.4	2	5	248	0.00	29.923 
11:10	36.0	32.7	36.0	64	25.0	4	12	270	0.00	29.920 
11:15	35.6	32.2	35.6	64	24.6	4	10	270	0.00	29.921 
11:20	35.5	32.1	35.5	64	24.5	4	12	270	0.00	29.917 
11:25	35.0	30.6	35.0	63	23.7	5	13	270	0.00	29.917 
11:30	34.9	29.0	34.9	62	23.2	7	15	270	0.00	29.917 
11:35	35.0	31.5	35.0	64	24.1	4	8	270	0.00	29.912 
11:40	35.0	30.6	35.0	63	23.7	5	15	270	0.00	29.913 
11:45	35.0	31.5	35.0	65	24.4	4	13	270	0.00	29.909 
11:50	34.9	29.7	34.9	64	24.0	6	14	270	0.00	29.907 
11:55	34.9	30.5	34.9	64	24.0	5	12	270	0.00	29.906 
12:00	34.7	29.4	34.7	62	23.0	6	15	270	0.00	29.904 
12:05	34.7	28.8	34.7	60	22.3	7	15	270	0.00	29.900 
12:10	34.7	28.8	34.7	62	23.0	7	17	248	0.00	29.894 
12:15	34.7	28.8	34.7	61	22.6	7	15	270	0.00	29.895 
12:20	35.0	30.6	35.0	63	23.7	5	11	270	0.00	29.893 
12:25	35.0	30.6	35.0	61	22.9	5	18	270	0.00	29.892 
12:30	35.0	29.8	35.0	60	22.5	6	15	270	0.00	29.896 
12:35	35.0	30.6	35.0	60	22.5	5	15	270	0.00	29.893 
12:40	34.7	28.8	34.7	59	21.9	7	18	270	0.00	29.893 
12:45	34.7	30.2	34.7	60	22.3	5	10	270	0.00	29.892 
12:50	34.9	30.5	34.9	61	22.8	5	14	270	0.00	29.892 
12:55	34.7	30.2	34.7	61	22.6	5	9	270	0.00	29.892 
13:00	35.2	31.8	35.2	60	22.7	4	10	270	0.00	29.891 
13:05	35.3	31.0	35.3	60	22.8	5	14	270	0.00	29.890 
13:10	35.6	30.5	35.6	58	22.3	6	16	270	0.00	29.890 
13:15	35.5	30.4	35.5	58	22.2	6	12	270	0.00	29.889 
13:20	35.6	32.2	35.6	59	22.7	4	10	270	0.00	29.887 
13:25	35.3	30.2	35.3	60	22.8	6	15	270	0.00	29.891 
13:30	35.3	31.0	35.3	60	22.8	5	16	270	0.00	29.891 
13:35	35.8	31.5	35.8	60	23.3	5	11	270	0.00	29.891 
13:40	35.8	30.8	35.8	58	22.5	6	13	270	0.00	29.892 
13:45	35.8	35.8	35.8	61	23.7	3	8	248	0.00	29.890 
13:50	35.8	32.5	35.8	59	22.9	4	7	270	0.00	29.890 
13:55	35.8	35.8	35.8	60	23.3	3	8	248	0.00	29.888 
14:00	36.0	36.0	36.0	59	23.1	3	6	270	0.00	29.889 
14:05	36.2	36.2	36.2	60	23.7	3	7	248	0.00	29.890 
14:10	36.0	31.8	36.0	59	23.1	5	12	248	0.00	29.892 
14:15	36.0	32.7	36.0	60	23.5	4	10	248	0.00	29.891 
14:20	35.9	30.2	35.9	57	22.2	7	15	248	0.00	29.891 
14:25	35.9	31.7	35.9	58	22.6	5	12	248	0.00	29.891 
14:30	36.2	32.0	36.2	58	22.9	5	13	270	0.00	29.892 
14:35	36.2	36.2	36.2	59	23.3	3	9	270	0.00	29.892 
14:40	36.0	32.7	36.0	58	22.7	4	9	270	0.00	29.893 
14:45	36.0	31.8	36.0	58	22.7	5	11	270	0.00	29.893 
14:50	36.0	31.0	36.0	57	22.3	6	14	270	0.00	29.898 
14:55	36.2	32.9	36.2	58	22.9	4	13	248	0.00	29.900 
15:00	36.0	31.8	36.0	56	21.8	5	10	270	0.00	29.902 
15:05	35.9	32.6	35.9	57	22.2	4	14	270	0.00	29.904 
15:10	35.9	31.7	35.9	58	22.6	5	12	270	0.00	29.905 
15:15	35.8	30.8	35.8	57	22.1	6	12	270	0.00	29.905 
15:20	35.9	32.6	35.9	58	22.6	4	11	248	0.00	29.903 
15:25	36.2	32.9	36.2	58	22.9	4	12	248	0.00	29.902 
15:30	36.0	31.0	36.0	57	22.3	6	16	270	0.00	29.898 
15:35	35.9	31.7	35.9	57	22.2	5	12	248	0.00	29.898 
15:40	35.8	32.5	35.8	58	22.5	4	14	270	0.00	29.900 
15:45	35.8	32.5	35.8	57	22.1	4	13	270	0.00	29.907 
15:50	35.6	32.2	35.6	58	22.3	4	10	270	0.00	29.907 
15:55	35.6	32.2	35.6	58	22.3	4	12	270	0.00	29.908 
16:00	35.5	31.2	35.5	57	21.8	5	11	270	0.00	29.911 
16:05	35.3	31.9	35.3	57	21.6	4	10	270	0.00	29.916 
16:10	35.5	32.1	35.5	58	22.2	4	11	270	0.00	29.918 
16:15	35.5	35.5	35.5	58	22.2	3	7	270	0.00	29.920 
16:20	35.2	35.2	35.2	58	21.9	3	7	270	0.00	29.921 
16:25	35.0	35.0	35.0	58	21.7	2	7	270	0.00	29.920 
16:30	35.0	35.0	35.0	61	22.9	2	9	270	0.00	29.920 
16:35	35.3	35.3	35.3	59	22.4	3	9	270	0.00	29.918 
16:40	35.6	32.2	35.6	58	22.3	4	10	270	0.00	29.920 
16:45	35.5	32.1	35.5	58	22.2	4	13	270	0.00	29.923 
16:50	35.3	31.9	35.3	59	22.4	4	12	270	0.00	29.926 
16:55	35.2	35.2	35.2	60	22.7	3	11	248	0.00	29.927 
17:00	34.9	34.9	34.9	61	22.8	3	9	270	0.00	29.927 
17:05	34.7	34.7	34.7	62	23.0	3	9	248	0.00	29.928 
17:10	34.6	34.6	34.6	63	23.3	3	9	270	0.00	29.931 
17:15	34.6	34.6	34.6	64	23.7	3	9	270	0.00	29.933 
17:20	34.4	34.4	34.4	65	23.9	2	6	270	0.00	29.932 
17:25	34.4	34.4	34.4	65	23.9	2	6	248	0.00	29.935 
17:30	34.3	34.3	34.3	66	24.1	3	11	248	0.00	29.939 
17:35	34.3	34.3	34.3	67	24.5	3	11	270	0.00	29.939 
17:40	34.3	30.7	34.3	68	24.9	4	10	248	0.00	29.941 
17:45	34.1	34.1	34.1	69	25.0	3	7	248	0.00	29.942 
17:50	34.0	34.0	34.0	69	24.9	2	5	248	0.00	29.943 
17:55	33.8	33.8	33.8	70	25.1	3	9	270	0.00	29.945 
18:00	33.8	33.8	33.8	70	25.1	3	7	248	0.00	29.948 
18:05	33.8	33.8	33.8	70	25.1	3	6	270	0.00	29.950 
18:10	33.8	33.8	33.8	70	25.1	3	6	248	0.00	29.953 
18:15	33.8	33.8	33.8	71	25.4	2	8	248	0.00	29.955 
18:20	33.8	33.8	33.8	71	25.4	2	6	270	0.00	29.956 
18:25	33.8	33.8	33.8	71	25.4	3	6	248	0.00	29.958 
18:30	33.8	33.8	33.8	71	25.4	2	5	270	0.00	29.963 
18:35	33.8	30.2	33.8	71	25.4	4	11	248	0.00	29.961 
18:40	33.8	33.8	33.8	72	25.7	3	7	270	0.00	29.966 
18:45	33.8	33.8	33.8	72	25.7	2	7	248	0.00	29.968 
18:50	33.8	33.8	33.8	73	26.1	2	7	248	0.00	29.970 
18:55	33.8	33.8	33.8	74	26.4	3	7	248	0.00	29.971 
19:00	33.7	33.7	33.7	75	26.6	2	9	248	0.00	29.973 
19:05	33.7	33.7	33.7	76	27.0	3	7	248	0.00	29.976 
19:10	33.7	33.7	33.7	77	27.3	2	5	248	0.00	29.975 
19:15	33.5	33.5	33.5	79	27.7	3	9	225	0.00	29.976 
19:20	33.4	33.4	33.4	80	27.9	3	9	270	0.00	29.979 
19:25	33.4	33.4	33.4	81	28.2	3	6	248	0.00	29.983 
19:30	33.2	33.2	33.2	82	28.3	2	7	248	0.00	29.983 
19:35	33.2	33.2	33.2	83	28.6	2	6	248	0.00	29.981 
19:40	33.1	33.1	33.1	84	28.8	3	11	248	0.00	29.982 
19:45	32.9	32.9	32.9	84	28.6	2	5	248	0.00	29.985 
19:50	32.9	29.1	32.9	85	28.9	4	10	248	0.00	29.986 
19:55	32.8	32.8	32.8	86	29.1	2	6	248	0.00	29.988 
20:00	32.8	32.8	32.8	86	29.1	2	5	248	0.00	29.988 
20:05	32.8	32.8	32.8	87	29.4	2	4	248	0.00	29.988 
20:10	32.7	32.7	32.7	87	29.3	2	7	248	0.00	29.988 
20:15	32.7	32.7	32.7	87	29.3	1	7	248	0.00	29.990 
20:20	32.7	32.7	32.7	88	29.5	3	6	248	0.00	29.989 
20:25	32.7	32.7	32.7	88	29.5	2	5	248	0.00	29.989 
20:30	32.7	32.7	32.7	88	29.5	2	5	248	0.00	29.988 
20:35	32.7	32.7	32.7	88	29.5	2	6	248	0.00	29.988 
20:40	32.5	32.5	32.5	88	29.3	2	6	248	0.00	29.988 
20:45	32.5	32.5	32.5	89	29.6	3	7	248	0.00	29.988 
20:50	32.5	32.5	32.5	88	29.3	2	6	248	0.00	29.988 
20:55	32.7	32.7	32.7	88	29.5	2	6	270	0.00	29.986 
21:00	32.7	32.7	32.7	88	29.5	2	4	248	0.00	29.987 
21:05	32.7	32.7	32.7	88	29.5	1	3	248	0.00	29.987 
21:10	32.8	32.8	32.8	88	29.6	1	3	248	0.00	29.987 
21:15	32.8	32.8	32.8	88	29.6	2	5	248	0.00	29.987 
21:20	32.8	32.8	32.8	87	29.4	2	6	248	0.00	29.987 
21:25	32.9	32.9	32.9	87	29.5	1	3	248	0.00	29.986 
21:30	32.9	32.9	32.9	86	29.2	1	5	248	0.00	29.987 
21:35	33.1	33.1	33.1	86	29.4	2	4	270	0.00	29.986 
21:40	33.1	33.1	33.1	85	29.1	1	5	248	0.00	29.986 
21:45	33.2	33.2	33.2	85	29.2	1	3	248	0.00	29.986 
21:50	33.2	33.2	33.2	84	28.9	1	3	248	0.00	29.987 
21:55	33.4	33.4	33.4	83	28.8	1	4	248	0.00	29.987 
22:00	33.5	33.5	33.5	83	28.9	1	3	248	0.00	29.984 
22:05	33.7	33.7	33.7	82	28.8	1	6	248	0.00	29.981 
22:10	33.7	33.7	33.7	81	28.5	2	6	248	0.00	29.981 
22:15	33.8	33.8	33.8	81	28.6	1	5	248	0.00	29.981 
22:20	33.8	33.8	33.8	81	28.6	1	5	248	0.00	29.982 
22:25	33.8	33.8	33.8	80	28.3	1	5	248	0.00	29.982 
22:30	33.8	33.8	33.8	80	28.3	1	4	225	0.00	29.980 
22:35	33.8	33.8	33.8	80	28.3	1	2	248	0.00	29.980 
22:40	33.8	33.8	33.8	80	28.3	1	3	225	0.00	29.982 
22:45	33.8	33.8	33.8	80	28.3	1	4	248	0.00	29.981 
22:50	33.8	33.8	33.8	80	28.3	2	6	248	0.00	29.981 
22:55	33.8	33.8	33.8	80	28.3	1	3	248	0.00	29.982 
23:00	33.8	33.8	33.8	80	28.3	1	3	248	0.00	29.983 
23:05	33.8	33.8	33.8	80	28.3	0	3	225	0.00	29.985 
23:10	33.7	33.7	33.7	80	28.2	0	2	225	0.00	29.986 
23:15	33.7	33.7	33.7	80	28.2	1	3	225	0.00	29.986 
23:20	33.7	33.7	33.7	81	28.5	0	2	248	0.00	29.986 
23:25	33.7	33.7	33.7	81	28.5	0	2	248	0.00	29.986 
23:30	33.7	33.7	33.7	81	28.5	0	1	248	0.00	29.987 
23:35	33.7	33.7	33.7	81	28.5	0	1	248	0.00	29.987 
23:40	33.7	33.7	33.7	81	28.5	0	1	248	0.00	29.987 
23:45	33.8	33.8	33.8	81	28.6	0	1	248	0.00	29.987 
23:50	33.8	33.8	33.8	81	28.6	0	1	248	0.00	29.987 
23:55	33.8	33.8	33.8	81	28.6	0	5	248	0.00	29.987 

CoCoRaHS
IN-AL-39
A2 Web Hosting
Creative Commons License
GoDaddy
Look for:

loaded 2017-12-11 12:19:41 • last modified 2010-11-18 10:43:29
Privacy PolicyDisclaimer
• wx.awcolley.com is powered by PmWiki v.2002016 •
• all content (unless otherwise noted) © 2017 A W Colley